Bow Engineer — LASA7 — position and weather

sailwx.info

Track history (hours):
 
Tides and Currents Weather Stations Pressure Air Temp Water Temp Dewpoint Dewpoint Depression Visibility Wind Speed Wind Dir Waves Ship Positions

Bow Engineer

Last reported at 2017-Dec-06 23:57 UTC. Time now 2017-Dec-17 00:48 UTC.
Position S 30°18' E 031°20'.
Warning: this ship's position is 10 days out of date.

Length 170 m; draft 8.6 m.

Type: Ship (hazmat cat A). MMSI: 258767000.

Date/timePositionNaut miles runAvg speedWind from/ knotsBaromVisibWave heightAir tempDewpointWater temp
2017-Dec-06 23:57S 30°18' E 031°20'817.1
2017-Dec-06 23:29S 30°12' E 031°26'817.0
2017-Dec-06 23:01S 30°05' E 031°30'817.0
2017-Dec-06 22:31S 29°57' E 031°35'917.1
2017-Dec-06 22:01S 29°50' E 031°40'816.6
2017-Dec-06 21:31S 29°43' E 031°45'815.9
2017-Dec-06 21:01S 29°36' E 031°50'  
2017-Dec-03 12:51S 28°56' E 032°06'0 0.0
2017-Dec-03 12:27S 28°56' E 032°06'0 0.0
2017-Dec-03 11:45S 28°56' E 032°06'0 0.1
2017-Dec-03 11:27S 28°56' E 032°06'0 0.0
2017-Dec-03 09:27S 28°56' E 032°06'0 0.2
2017-Dec-03 07:45S 28°57' E 032°05'0 0.2
2017-Dec-03 07:27S 28°57' E 032°06'0 0.0
2017-Dec-03 06:57S 28°57' E 032°06'0 0.0
2017-Dec-03 06:30S 28°57' E 032°06'0 0.0
2017-Dec-03 05:57S 28°57' E 032°06'0 0.0
2017-Dec-03 05:27S 28°57' E 032°06'0 0.0
2017-Dec-03 05:00S 28°57' E 032°06'0 0.1
2017-Dec-03 04:30S 28°57' E 032°06'0 0.0
2017-Dec-03 04:00S 28°57' E 032°06'0 0.8
2017-Dec-03 03:30S 28°57' E 032°06'2 4.3
2017-Dec-03 03:00S 28°59' E 032°06'4 7.6
2017-Dec-03 02:30S 29°03' E 032°08'5 9.2
2017-Dec-03 02:00S 29°07' E 032°05'612.0
2017-Dec-03 01:30S 29°11' E 032°00'612.8
2017-Dec-03 01:00S 29°16' E 031°55'713.1
2017-Dec-03 00:30S 29°20' E 031°50'713.6
2017-Dec-03 00:00S 29°25' E 031°45'713.7
2017-Dec-02 23:31S 29°30' E 031°39'714.0
2017-Dec-02 23:00S 29°35' E 031°33'713.8
2017-Dec-02 22:31S 29°40' E 031°27'714.0
2017-Dec-02 22:00S 29°45' E 031°22'713.6
2017-Dec-02 21:31S 29°48' E 031°15'713.4
2017-Dec-02 21:00S 29°50' E 031°08'5 9.7
2017-Dec-02 20:30S 29°53' E 031°03'0 0.9
2017-Dec-02 20:01S 29°53' E 031°03'0 0.0
2017-Dec-02 19:30S 29°53' E 031°03'0 0.0
2017-Dec-02 19:00S 29°53' E 031°03'0 0.0
2017-Dec-02 18:27S 29°53' E 031°03'0 0.0
2017-Dec-02 18:00S 29°53' E 031°03'0 0.0
2017-Dec-02 17:30S 29°53' E 031°03'0 0.0
2017-Dec-02 16:57S 29°53' E 031°03'0 0.0
2017-Dec-02 16:27S 29°53' E 031°03'0 0.0
2017-Dec-02 16:00S 29°53' E 031°03'0 0.0
2017-Dec-02 15:30S 29°53' E 031°03'0 0.0
2017-Dec-02 15:00S 29°53' E 031°03'0 0.0
2017-Dec-02 14:30S 29°53' E 031°03'0 0.0
2017-Dec-02 14:00S 29°53' E 031°03'0 0.0
2017-Dec-02 13:30S 29°53' E 031°03'0 0.0
2017-Dec-02 12:57S 29°53' E 031°03'0 0.0
2017-Dec-02 12:27S 29°53' E 031°03'0 0.0
2017-Dec-02 12:00S 29°53' E 031°03'0 0.0
2017-Dec-02 11:30S 29°53' E 031°03'0 0.0
2017-Dec-02 11:00S 29°53' E 031°03'0 0.0
2017-Dec-02 10:30S 29°53' E 031°03'0 0.0
2017-Dec-02 10:00S 29°53' E 031°03'0 0.0
2017-Dec-02 09:30S 29°53' E 031°03'0 0.0
2017-Dec-02 09:00S 29°53' E 031°03'0 0.0
2017-Dec-02 08:30S 29°53' E 031°03'0 0.0
2017-Dec-02 07:51S 29°53' E 031°03'0 0.0
2017-Dec-02 07:30S 29°53' E 031°03'0 0.0
2017-Dec-02 07:00S 29°53' E 031°03'0 0.0
2017-Dec-02 06:24S 29°53' E 031°03'0 0.0
2017-Dec-02 06:00S 29°53' E 031°03'0 0.0
2017-Dec-02 05:27S 29°53' E 031°03'0 0.0
2017-Dec-02 05:00S 29°53' E 031°03'0 0.0
2017-Dec-02 04:30S 29°53' E 031°03'0 0.0
2017-Dec-02 04:00S 29°53' E 031°03'0 0.0
2017-Dec-02 03:30S 29°53' E 031°03'0 0.0
2017-Dec-02 03:00S 29°53' E 031°03'0 0.0
2017-Dec-02 02:30S 29°53' E 031°03'0 0.0
2017-Dec-02 02:00S 29°53' E 031°03'0 0.0
2017-Dec-02 01:30S 29°53' E 031°03'0 0.0
2017-Dec-02 01:00S 29°53' E 031°03'0 0.0
2017-Dec-02 00:30S 29°53' E 031°03'0 0.0
2017-Dec-01 23:57S 29°53' E 031°03'0 0.0
2017-Dec-01 23:30S 29°53' E 031°03'0 0.0
2017-Dec-01 23:00S 29°53' E 031°03'0 0.0
2017-Dec-01 22:30S 29°53' E 031°03'0 0.0
2017-Dec-01 21:57S 29°53' E 031°03'0 0.0
2017-Dec-01 21:30S 29°53' E 031°03'0 0.0
2017-Dec-01 21:00S 29°53' E 031°03'0 0.0
2017-Dec-01 20:27S 29°53' E 031°03'0 0.0
2017-Dec-01 20:00S 29°53' E 031°03'0 0.0
2017-Dec-01 19:30S 29°53' E 031°03'0 0.0
2017-Dec-01 19:00S 29°53' E 031°03'0 0.0
2017-Dec-01 18:27S 29°53' E 031°03'0 0.0
2017-Dec-01 18:00S 29°53' E 031°03'0 0.0
2017-Dec-01 17:27S 29°53' E 031°03'0 0.0
2017-Dec-01 17:00S 29°53' E 031°03'0 0.0
2017-Dec-01 16:30S 29°53' E 031°03'0 0.0
2017-Dec-01 16:00S 29°53' E 031°03'0 0.0
2017-Dec-01 15:30S 29°53' E 031°03'0 0.0
2017-Dec-01 15:00S 29°53' E 031°03'0 0.0
2017-Dec-01 14:30S 29°53' E 031°03'0 0.0
2017-Dec-01 13:57S 29°53' E 031°03'0 0.0
2017-Dec-01 13:30S 29°53' E 031°03'0 0.0
2017-Dec-01 13:00S 29°53' E 031°03'0 0.0
2017-Dec-01 12:27S 29°53' E 031°03'0 0.0
2017-Dec-01 12:00S 29°53' E 031°03'0 0.0
2017-Dec-01 11:30S 29°53' E 031°03'0 0.0
2017-Dec-01 11:00S 29°53' E 031°03'0 0.0
2017-Dec-01 10:30S 29°53' E 031°03'0 0.0
2017-Dec-01 10:00S 29°53' E 031°03'0 0.0
2017-Dec-01 09:27S 29°53' E 031°03'0 0.0
2017-Dec-01 08:57S 29°53' E 031°03'0 0.0
2017-Dec-01 08:30S 29°53' E 031°03'0 0.0
2017-Dec-01 08:00S 29°53' E 031°03'0 0.0
2017-Dec-01 07:30S 29°53' E 031°03'0 0.0
2017-Dec-01 07:00S 29°53' E 031°03'0 0.0
2017-Dec-01 06:30S 29°53' E 031°03'0 0.0
2017-Dec-01 06:00S 29°53' E 031°03'0 0.0
2017-Dec-01 05:30S 29°53' E 031°03'0 0.0
2017-Dec-01 05:00S 29°53' E 031°03'0 0.0
2017-Dec-01 04:30S 29°53' E 031°03'0 0.0
2017-Dec-01 04:00S 29°53' E 031°03'0 0.0
2017-Dec-01 03:30S 29°53' E 031°03'0 0.0
2017-Dec-01 03:00S 29°53' E 031°03'0 0.0
2017-Dec-01 02:30S 29°53' E 031°03'0 0.0
2017-Dec-01 02:00S 29°53' E 031°03'0 0.0
2017-Dec-01 01:30S 29°53' E 031°03'0 0.0
2017-Dec-01 01:00S 29°53' E 031°03'0 0.0
2017-Dec-01 00:30S 29°53' E 031°03'0 0.0
2017-Dec-01 00:00S 29°53' E 031°03'0 0.0
2017-Nov-30 23:30S 29°53' E 031°03'0 0.0
2017-Nov-30 23:00S 29°53' E 031°03'0 0.0
2017-Nov-30 22:30S 29°53' E 031°03'0 0.0
2017-Nov-30 22:00S 29°53' E 031°03'0 0.0
2017-Nov-30 21:30S 29°53' E 031°03'0 0.0
2017-Nov-30 21:00S 29°53' E 031°03'0 0.6
2017-Nov-30 20:31S 29°53' E 031°03'3 6.1
2017-Nov-30 20:00S 29°50' E 031°05'3 6.8
2017-Nov-30 19:30S 29°48' E 031°07'1 1.9
2017-Nov-30 19:00S 29°47' E 031°08'2 3.3
2017-Nov-30 18:30S 29°46' E 031°10'3 6.5
2017-Nov-30 18:01S 29°43' E 031°12'0 0.5
2017-Nov-30 17:30S 29°43' E 031°12'0 0.0
2017-Nov-30 17:00S 29°43' E 031°12'0 0.0
2017-Nov-30 16:30S 29°43' E 031°12'0 0.0
2017-Nov-30 16:00S 29°43' E 031°12'0 0.0
2017-Nov-30 15:30S 29°43' E 031°12'0 0.0
2017-Nov-30 15:00S 29°43' E 031°12'0 0.0
2017-Nov-30 14:30S 29°43' E 031°12'0 0.0
2017-Nov-30 14:00S 29°43' E 031°12'0 0.0
2017-Nov-30 13:30S 29°43' E 031°12'0 0.0
2017-Nov-30 13:00S 29°43' E 031°12'0 0.1
2017-Nov-30 12:30S 29°43' E 031°12'0 0.0
2017-Nov-30 12:00S 29°43' E 031°12'0 0.0
2017-Nov-30 11:30S 29°43' E 031°12'0 0.0
2017-Nov-30 11:00S 29°43' E 031°12'0 0.0
2017-Nov-30 10:30S 29°43' E 031°12'0 0.0
2017-Nov-30 10:00S 29°43' E 031°12'0 0.0
2017-Nov-30 09:30S 29°43' E 031°12'0 0.1
2017-Nov-30 09:00S 29°43' E 031°12'0 0.0
2017-Nov-30 08:30S 29°43' E 031°12'0 0.0
2017-Nov-30 08:00S 29°43' E 031°12'0 0.0
2017-Nov-30 07:30S 29°43' E 031°12'0 0.0
2017-Nov-30 07:00S 29°43' E 031°12'0 0.0
2017-Nov-30 06:30S 29°43' E 031°12'0 0.0
2017-Nov-30 06:00S 29°43' E 031°12'0 0.0
2017-Nov-30 05:30S 29°43' E 031°12'0 0.0
2017-Nov-30 05:00S 29°43' E 031°12'0 0.0
2017-Nov-30 04:30S 29°43' E 031°12'0 0.0
2017-Nov-30 04:00S 29°43' E 031°12'0 0.0
2017-Nov-30 03:30S 29°43' E 031°12'0 0.0
2017-Nov-30 03:00S 29°43' E 031°12'0 0.0
2017-Nov-30 02:30S 29°43' E 031°12'0 0.0
2017-Nov-30 02:00S 29°43' E 031°12'0 0.0
2017-Nov-30 01:27S 29°43' E 031°12'0 0.0
2017-Nov-30 01:00S 29°43' E 031°12'0 0.0
2017-Nov-30 00:30S 29°43' E 031°12'0 0.0
2017-Nov-30 00:00S 29°43' E 031°12'0 0.0
2017-Nov-29 23:30S 29°43' E 031°12'0 0.0
2017-Nov-29 23:00S 29°43' E 031°12'0 0.0
2017-Nov-29 22:30S 29°43' E 031°12'0 0.0
2017-Nov-29 22:00S 29°43' E 031°12'0 0.1
2017-Nov-29 21:30S 29°43' E 031°12'0 0.0
2017-Nov-29 21:00S 29°43' E 031°12'0 0.0
2017-Nov-29 20:30S 29°43' E 031°12'0 0.0
2017-Nov-29 19:54S 29°43' E 031°12'0 0.1
2017-Nov-29 19:30S 29°43' E 031°12'0 0.0
2017-Nov-29 18:57S 29°43' E 031°12'0 0.0
2017-Nov-29 18:00S 29°43' E 031°12'0 0.0
2017-Nov-29 17:30S 29°43' E 031°12'0 0.0
2017-Nov-29 17:00S 29°43' E 031°12'0 0.0
2017-Nov-29 16:30S 29°43' E 031°12'0 0.1
2017-Nov-29 16:00S 29°43' E 031°12'0 0.1
2017-Nov-29 15:30S 29°43' E 031°12'0 0.1
2017-Nov-29 15:00S 29°43' E 031°12'0 0.0
2017-Nov-29 14:30S 29°43' E 031°12'0 0.0
2017-Nov-29 14:00S 29°43' E 031°12'0 0.0
2017-Nov-29 13:30S 29°43' E 031°12'0 0.0
2017-Nov-29 12:57S 29°43' E 031°12'0 0.0
2017-Nov-29 12:30S 29°43' E 031°12'0 0.0
2017-Nov-29 12:00S 29°43' E 031°12'0 0.0
2017-Nov-29 11:30S 29°43' E 031°12'0 0.0
2017-Nov-29 11:00S 29°43' E 031°12'0 0.0
2017-Nov-29 10:30S 29°43' E 031°12'0 0.1
2017-Nov-29 10:00S 29°43' E 031°12'0 0.1
2017-Nov-29 09:30S 29°43' E 031°12'0 0.0
2017-Nov-29 09:00S 29°43' E 031°12'0 0.0
2017-Nov-29 08:30S 29°43' E 031°12'0 0.1
2017-Nov-29 08:00S 29°43' E 031°12'0 0.0
2017-Nov-29 07:30S 29°43' E 031°12'0 0.0
2017-Nov-29 07:00S 29°43' E 031°12'0 0.0
2017-Nov-29 06:30S 29°43' E 031°12'0 0.0
2017-Nov-29 06:00S 29°43' E 031°12'0 0.0
2017-Nov-29 05:30S 29°43' E 031°12'0 0.0
2017-Nov-29 05:00S 29°43' E 031°12'0 0.0
2017-Nov-29 04:30S 29°43' E 031°12'0 0.0
2017-Nov-29 04:00S 29°43' E 031°12'0 0.0
2017-Nov-29 03:30S 29°43' E 031°12'0 0.1
2017-Nov-29 03:00S 29°43' E 031°12'0 0.1
2017-Nov-29 02:30S 29°43' E 031°12'0 0.0
2017-Nov-29 02:00S 29°43' E 031°12'0 0.1
2017-Nov-29 01:30S 29°43' E 031°12'0 0.1
2017-Nov-29 01:00S 29°43' E 031°12'0 0.1
2017-Nov-29 00:27S 29°43' E 031°12'0 0.1
2017-Nov-29 00:00S 29°43' E 031°12'0 0.1
2017-Nov-28 23:30S 29°43' E 031°12'0 0.2
2017-Nov-28 23:00S 29°43' E 031°12'0 0.0
2017-Nov-28 22:30S 29°43' E 031°12'0 0.0
2017-Nov-28 22:00S 29°43' E 031°12'0 0.0
2017-Nov-28 21:30S 29°43' E 031°12'0 0.0
2017-Nov-28 21:00S 29°43' E 031°12'0 0.1
2017-Nov-28 20:30S 29°43' E 031°12'0 0.1
2017-Nov-28 20:00S 29°43' E 031°12'0 0.0
2017-Nov-28 19:30S 29°43' E 031°12'0 0.1
2017-Nov-28 19:00S 29°43' E 031°12'0 0.0
2017-Nov-28 18:30S 29°43' E 031°12'0 0.0
2017-Nov-28 18:00S 29°43' E 031°12'0 0.0
2017-Nov-28 17:30S 29°43' E 031°12'0 0.0
2017-Nov-28 17:00S 29°43' E 031°12'0 0.0
2017-Nov-28 16:30S 29°43' E 031°12'0 0.1
2017-Nov-28 16:00S 29°43' E 031°12'0 0.0
2017-Nov-28 15:00S 29°43' E 031°12'0 0.1
2017-Nov-28 14:30S 29°43' E 031°12'0 0.1
2017-Nov-28 14:00S 29°43' E 031°12'0 0.1
2017-Nov-28 13:30S 29°43' E 031°12'0 0.0
2017-Nov-28 13:00S 29°43' E 031°12'0 0.1
2017-Nov-28 12:30S 29°43' E 031°12'0 0.1
2017-Nov-28 12:00S 29°43' E 031°12'0 0.1
2017-Nov-28 11:30S 29°43' E 031°12'0 0.1
2017-Nov-28 11:00S 29°43' E 031°12'0 0.1
2017-Nov-28 10:30S 29°43' E 031°12'0 0.1
2017-Nov-28 10:00S 29°43' E 031°12'0 0.2
2017-Nov-28 09:30S 29°43' E 031°12'0 0.0
2017-Nov-28 09:00S 29°43' E 031°12'0 0.1
2017-Nov-28 08:30S 29°43' E 031°12'0 0.1
2017-Nov-28 08:00S 29°43' E 031°12'0 0.1
2017-Nov-28 07:30S 29°43' E 031°12'0 0.0
2017-Nov-28 07:00S 29°43' E 031°12'0 0.0
2017-Nov-28 06:30S 29°43' E 031°12'0 0.0
2017-Nov-28 06:00S 29°43' E 031°12'0 0.0
2017-Nov-28 05:30S 29°43' E 031°12'0 0.1
2017-Nov-28 04:30S 29°43' E 031°12'0 0.1
2017-Nov-28 04:00S 29°43' E 031°12'0 0.1
2017-Nov-28 03:30S 29°43' E 031°12'0 0.1
2017-Nov-28 03:00S 29°43' E 031°12'0 0.0
2017-Nov-28 02:30S 29°43' E 031°12'0 0.0
2017-Nov-28 02:00S 29°43' E 031°12'0 0.0
2017-Nov-28 01:30S 29°43' E 031°12'0 0.0
2017-Nov-28 01:00S 29°43' E 031°12'0 0.0
2017-Nov-28 00:30S 29°43' E 031°12'0 0.0
2017-Nov-28 00:00S 29°43' E 031°12'0 0.0
2017-Nov-27 23:30S 29°43' E 031°12'0 0.0
2017-Nov-27 23:00S 29°43' E 031°12'0 0.0
2017-Nov-27 22:30S 29°43' E 031°12'0 0.0
2017-Nov-27 22:00S 29°43' E 031°12'0 0.0
2017-Nov-27 21:30S 29°43' E 031°12'0 0.0
2017-Nov-27 21:00S 29°43' E 031°12'0 0.0
2017-Nov-27 20:30S 29°43' E 031°12'0 0.0
2017-Nov-27 20:00S 29°43' E 031°12'0 0.0
2017-Nov-27 19:30S 29°43' E 031°12'0 0.0
2017-Nov-27 19:00S 29°43' E 031°12'0 0.0
2017-Nov-27 18:30S 29°43' E 031°12'0 0.0
2017-Nov-27 18:00S 29°43' E 031°12'0 0.0
2017-Nov-27 17:30S 29°43' E 031°12'0 0.0
2017-Nov-27 17:00S 29°43' E 031°12'0 0.0
2017-Nov-27 16:27S 29°43' E 031°12'0 0.0
2017-Nov-27 16:00S 29°43' E 031°12'0 0.0
2017-Nov-27 15:30S 29°43' E 031°12'0 0.0
2017-Nov-27 15:00S 29°43' E 031°12'0 0.0
2017-Nov-27 14:30S 29°43' E 031°12'0 0.0
2017-Nov-27 14:00S 29°43' E 031°12'0 0.0
2017-Nov-27 13:30S 29°43' E 031°12'0 0.0
2017-Nov-27 12:57S 29°43' E 031°12'0 0.0
2017-Nov-27 12:30S 29°43' E 031°12'0 0.0
2017-Nov-27 12:00S 29°43' E 031°12'0 0.0
2017-Nov-27 11:30S 29°43' E 031°12'0 0.0
2017-Nov-27 11:00S 29°43' E 031°12'0 0.0
2017-Nov-27 10:30S 29°43' E 031°12'0 0.0
2017-Nov-27 10:00S 29°43' E 031°12'0 0.0
2017-Nov-27 09:30S 29°43' E 031°12'0 0.1
2017-Nov-27 09:00S 29°43' E 031°12'0 0.0
2017-Nov-27 08:30S 29°43' E 031°12'0 0.0
2017-Nov-27 08:00S 29°43' E 031°12'0 0.0
2017-Nov-27 07:24S 29°43' E 031°12'0 0.0
2017-Nov-27 07:00S 29°43' E 031°12'0 0.1
2017-Nov-27 06:30S 29°43' E 031°12'0 0.1
2017-Nov-27 06:00S 29°43' E 031°12'0 0.0
2017-Nov-27 05:30S 29°43' E 031°12'0 0.0
2017-Nov-27 05:00S 29°43' E 031°12'0 0.0
2017-Nov-27 04:30S 29°43' E 031°12'0 0.0
2017-Nov-27 04:00S 29°43' E 031°12'0 0.0
2017-Nov-27 03:27S 29°43' E 031°12'0 0.0
2017-Nov-27 03:00S 29°43' E 031°12'0 0.1
2017-Nov-27 02:27S 29°43' E 031°12'0 0.0
2017-Nov-27 02:00S 29°43' E 031°12'0 0.1
2017-Nov-27 01:30S 29°43' E 031°12'0 0.0
2017-Nov-27 01:00S 29°43' E 031°12'0 0.0
2017-Nov-27 00:30S 29°43' E 031°12'0 0.1
2017-Nov-27 00:00S 29°43' E 031°12'  
Track history (hours):
 
Tides and Currents Weather Stations Pressure Air Temp Water Temp Dewpoint Dewpoint Depression Visibility Wind Speed Wind Dir Waves Ship Positions

Bow Engineer

Last reported at 2017-Dec-06 23:57 UTC. Time now 2017-Dec-17 00:48 UTC.
Position S 30°18' E 031°20'.
Warning: this ship's position is 10 days out of date.

Length 170 m; draft 8.6 m.

Type: Ship (hazmat cat A). MMSI: 258767000.

Date/timePositionNaut miles runAvg speedWind from/ knotsBaromVisibWave heightAir tempDewpointWater temp
2017-Dec-06 23:57S 30°18' E 031°20'817.1
2017-Dec-06 23:29S 30°12' E 031°26'817.0
2017-Dec-06 23:01S 30°05' E 031°30'817.0
2017-Dec-06 22:31S 29°57' E 031°35'917.1
2017-Dec-06 22:01S 29°50' E 031°40'816.6
2017-Dec-06 21:31S 29°43' E 031°45'815.9
2017-Dec-06 21:01S 29°36' E 031°50'  
2017-Dec-03 12:51S 28°56' E 032°06'0 0.0
2017-Dec-03 12:27S 28°56' E 032°06'0 0.0
2017-Dec-03 11:45S 28°56' E 032°06'0 0.1
2017-Dec-03 11:27S 28°56' E 032°06'0 0.0
2017-Dec-03 09:27S 28°56' E 032°06'0 0.2
2017-Dec-03 07:45S 28°57' E 032°05'0 0.2
2017-Dec-03 07:27S 28°57' E 032°06'0 0.0
2017-Dec-03 06:57S 28°57' E 032°06'0 0.0
2017-Dec-03 06:30S 28°57' E 032°06'0 0.0
2017-Dec-03 05:57S 28°57' E 032°06'0 0.0
2017-Dec-03 05:27S 28°57' E 032°06'0 0.0
2017-Dec-03 05:00S 28°57' E 032°06'0 0.1
2017-Dec-03 04:30S 28°57' E 032°06'0 0.0
2017-Dec-03 04:00S 28°57' E 032°06'0 0.8
2017-Dec-03 03:30S 28°57' E 032°06'2 4.3
2017-Dec-03 03:00S 28°59' E 032°06'4 7.6
2017-Dec-03 02:30S 29°03' E 032°08'5 9.2
2017-Dec-03 02:00S 29°07' E 032°05'612.0
2017-Dec-03 01:30S 29°11' E 032°00'612.8
2017-Dec-03 01:00S 29°16' E 031°55'713.1
2017-Dec-03 00:30S 29°20' E 031°50'713.6
2017-Dec-03 00:00S 29°25' E 031°45'713.7
2017-Dec-02 23:31S 29°30' E 031°39'714.0
2017-Dec-02 23:00S 29°35' E 031°33'713.8
2017-Dec-02 22:31S 29°40' E 031°27'714.0
2017-Dec-02 22:00S 29°45' E 031°22'713.6
2017-Dec-02 21:31S 29°48' E 031°15'713.4
2017-Dec-02 21:00S 29°50' E 031°08'5 9.7
2017-Dec-02 20:30S 29°53' E 031°03'0 0.9
2017-Dec-02 20:01S 29°53' E 031°03'0 0.0
2017-Dec-02 19:30S 29°53' E 031°03'0 0.0
2017-Dec-02 19:00S 29°53' E 031°03'0 0.0
2017-Dec-02 18:27S 29°53' E 031°03'0 0.0
2017-Dec-02 18:00S 29°53' E 031°03'0 0.0
2017-Dec-02 17:30S 29°53' E 031°03'0 0.0
2017-Dec-02 16:57S 29°53' E 031°03'0 0.0
2017-Dec-02 16:27S 29°53' E 031°03'0 0.0
2017-Dec-02 16:00S 29°53' E 031°03'0 0.0
2017-Dec-02 15:30S 29°53' E 031°03'0 0.0
2017-Dec-02 15:00S 29°53' E 031°03'0 0.0
2017-Dec-02 14:30S 29°53' E 031°03'0 0.0
2017-Dec-02 14:00S 29°53' E 031°03'0 0.0
2017-Dec-02 13:30S 29°53' E 031°03'0 0.0
2017-Dec-02 12:57S 29°53' E 031°03'0 0.0
2017-Dec-02 12:27S 29°53' E 031°03'0 0.0
2017-Dec-02 12:00S 29°53' E 031°03'0 0.0
2017-Dec-02 11:30S 29°53' E 031°03'0 0.0
2017-Dec-02 11:00S 29°53' E 031°03'0 0.0
2017-Dec-02 10:30S 29°53' E 031°03'0 0.0
2017-Dec-02 10:00S 29°53' E 031°03'0 0.0
2017-Dec-02 09:30S 29°53' E 031°03'0 0.0
2017-Dec-02 09:00S 29°53' E 031°03'0 0.0
2017-Dec-02 08:30S 29°53' E 031°03'0 0.0
2017-Dec-02 07:51S 29°53' E 031°03'0 0.0
2017-Dec-02 07:30S 29°53' E 031°03'0 0.0
2017-Dec-02 07:00S 29°53' E 031°03'0 0.0
2017-Dec-02 06:24S 29°53' E 031°03'0 0.0
2017-Dec-02 06:00S 29°53' E 031°03'0 0.0
2017-Dec-02 05:27S 29°53' E 031°03'0 0.0
2017-Dec-02 05:00S 29°53' E 031°03'0 0.0
2017-Dec-02 04:30S 29°53' E 031°03'0 0.0
2017-Dec-02 04:00S 29°53' E 031°03'0 0.0
2017-Dec-02 03:30S 29°53' E 031°03'0 0.0
2017-Dec-02 03:00S 29°53' E 031°03'0 0.0
2017-Dec-02 02:30S 29°53' E 031°03'0 0.0
2017-Dec-02 02:00S 29°53' E 031°03'0 0.0
2017-Dec-02 01:30S 29°53' E 031°03'0 0.0
2017-Dec-02 01:00S 29°53' E 031°03'0 0.0
2017-Dec-02 00:30S 29°53' E 031°03'0 0.0
2017-Dec-01 23:57S 29°53' E 031°03'0 0.0
2017-Dec-01 23:30S 29°53' E 031°03'0 0.0
2017-Dec-01 23:00S 29°53' E 031°03'0 0.0
2017-Dec-01 22:30S 29°53' E 031°03'0 0.0
2017-Dec-01 21:57S 29°53' E 031°03'0 0.0
2017-Dec-01 21:30S 29°53' E 031°03'0 0.0
2017-Dec-01 21:00S 29°53' E 031°03'0 0.0
2017-Dec-01 20:27S 29°53' E 031°03'0 0.0
2017-Dec-01 20:00S 29°53' E 031°03'0 0.0
2017-Dec-01 19:30S 29°53' E 031°03'0 0.0
2017-Dec-01 19:00S 29°53' E 031°03'0 0.0
2017-Dec-01 18:27S 29°53' E 031°03'0 0.0
2017-Dec-01 18:00S 29°53' E 031°03'0 0.0
2017-Dec-01 17:27S 29°53' E 031°03'0 0.0
2017-Dec-01 17:00S 29°53' E 031°03'0 0.0
2017-Dec-01 16:30S 29°53' E 031°03'0 0.0
2017-Dec-01 16:00S 29°53' E 031°03'0 0.0
2017-Dec-01 15:30S 29°53' E 031°03'0 0.0
2017-Dec-01 15:00S 29°53' E 031°03'0 0.0
2017-Dec-01 14:30S 29°53' E 031°03'0 0.0
2017-Dec-01 13:57S 29°53' E 031°03'0 0.0
2017-Dec-01 13:30S 29°53' E 031°03'0 0.0
2017-Dec-01 13:00S 29°53' E 031°03'0 0.0
2017-Dec-01 12:27S 29°53' E 031°03'0 0.0
2017-Dec-01 12:00S 29°53' E 031°03'0 0.0
2017-Dec-01 11:30S 29°53' E 031°03'0 0.0
2017-Dec-01 11:00S 29°53' E 031°03'0 0.0
2017-Dec-01 10:30S 29°53' E 031°03'0 0.0
2017-Dec-01 10:00S 29°53' E 031°03'0 0.0
2017-Dec-01 09:27S 29°53' E 031°03'0 0.0
2017-Dec-01 08:57S 29°53' E 031°03'0 0.0
2017-Dec-01 08:30S 29°53' E 031°03'0 0.0
2017-Dec-01 08:00S 29°53' E 031°03'0 0.0
2017-Dec-01 07:30S 29°53' E 031°03'0 0.0
2017-Dec-01 07:00S 29°53' E 031°03'0 0.0
2017-Dec-01 06:30S 29°53' E 031°03'0 0.0
2017-Dec-01 06:00S 29°53' E 031°03'0 0.0
2017-Dec-01 05:30S 29°53' E 031°03'0 0.0
2017-Dec-01 05:00S 29°53' E 031°03'0 0.0
2017-Dec-01 04:30S 29°53' E 031°03'0 0.0
2017-Dec-01 04:00S 29°53' E 031°03'0 0.0
2017-Dec-01 03:30S 29°53' E 031°03'0 0.0
2017-Dec-01 03:00S 29°53' E 031°03'0 0.0
2017-Dec-01 02:30S 29°53' E 031°03'0 0.0
2017-Dec-01 02:00S 29°53' E 031°03'0 0.0
2017-Dec-01 01:30S 29°53' E 031°03'0 0.0
2017-Dec-01 01:00S 29°53' E 031°03'0 0.0
2017-Dec-01 00:30S 29°53' E 031°03'0 0.0
2017-Dec-01 00:00S 29°53' E 031°03'0 0.0
2017-Nov-30 23:30S 29°53' E 031°03'0 0.0
2017-Nov-30 23:00S 29°53' E 031°03'0 0.0
2017-Nov-30 22:30S 29°53' E 031°03'0 0.0
2017-Nov-30 22:00S 29°53' E 031°03'0 0.0
2017-Nov-30 21:30S 29°53' E 031°03'0 0.0
2017-Nov-30 21:00S 29°53' E 031°03'0 0.6
2017-Nov-30 20:31S 29°53' E 031°03'3 6.1
2017-Nov-30 20:00S 29°50' E 031°05'3 6.8
2017-Nov-30 19:30S 29°48' E 031°07'1 1.9
2017-Nov-30 19:00S 29°47' E 031°08'2 3.3
2017-Nov-30 18:30S 29°46' E 031°10'3 6.5
2017-Nov-30 18:01S 29°43' E 031°12'0 0.5
2017-Nov-30 17:30S 29°43' E 031°12'0 0.0
2017-Nov-30 17:00S 29°43' E 031°12'0 0.0
2017-Nov-30 16:30S 29°43' E 031°12'0 0.0
2017-Nov-30 16:00S 29°43' E 031°12'0 0.0
2017-Nov-30 15:30S 29°43' E 031°12'0 0.0
2017-Nov-30 15:00S 29°43' E 031°12'0 0.0
2017-Nov-30 14:30S 29°43' E 031°12'0 0.0
2017-Nov-30 14:00S 29°43' E 031°12'0 0.0
2017-Nov-30 13:30S 29°43' E 031°12'0 0.0
2017-Nov-30 13:00S 29°43' E 031°12'0 0.1
2017-Nov-30 12:30S 29°43' E 031°12'0 0.0
2017-Nov-30 12:00S 29°43' E 031°12'0 0.0
2017-Nov-30 11:30S 29°43' E 031°12'0 0.0
2017-Nov-30 11:00S 29°43' E 031°12'0 0.0
2017-Nov-30 10:30S 29°43' E 031°12'0 0.0
2017-Nov-30 10:00S 29°43' E 031°12'0 0.0
2017-Nov-30 09:30S 29°43' E 031°12'0 0.1
2017-Nov-30 09:00S 29°43' E 031°12'0 0.0
2017-Nov-30 08:30S 29°43' E 031°12'0 0.0
2017-Nov-30 08:00S 29°43' E 031°12'0 0.0
2017-Nov-30 07:30S 29°43' E 031°12'0 0.0
2017-Nov-30 07:00S 29°43' E 031°12'0 0.0
2017-Nov-30 06:30S 29°43' E 031°12'0 0.0
2017-Nov-30 06:00S 29°43' E 031°12'0 0.0
2017-Nov-30 05:30S 29°43' E 031°12'0 0.0
2017-Nov-30 05:00S 29°43' E 031°12'0 0.0
2017-Nov-30 04:30S 29°43' E 031°12'0 0.0
2017-Nov-30 04:00S 29°43' E 031°12'0 0.0
2017-Nov-30 03:30S 29°43' E 031°12'0 0.0
2017-Nov-30 03:00S 29°43' E 031°12'0 0.0
2017-Nov-30 02:30S 29°43' E 031°12'0 0.0
2017-Nov-30 02:00S 29°43' E 031°12'0 0.0
2017-Nov-30 01:27S 29°43' E 031°12'0 0.0
2017-Nov-30 01:00S 29°43' E 031°12'0 0.0
2017-Nov-30 00:30S 29°43' E 031°12'0 0.0
2017-Nov-30 00:00S 29°43' E 031°12'0 0.0
2017-Nov-29 23:30S 29°43' E 031°12'0 0.0
2017-Nov-29 23:00S 29°43' E 031°12'0 0.0
2017-Nov-29 22:30S 29°43' E 031°12'0 0.0
2017-Nov-29 22:00S 29°43' E 031°12'0 0.1
2017-Nov-29 21:30S 29°43' E 031°12'0 0.0
2017-Nov-29 21:00S 29°43' E 031°12'0 0.0
2017-Nov-29 20:30S 29°43' E 031°12'0 0.0
2017-Nov-29 19:54S 29°43' E 031°12'0 0.1
2017-Nov-29 19:30S 29°43' E 031°12'0 0.0
2017-Nov-29 18:57S 29°43' E 031°12'0 0.0
2017-Nov-29 18:00S 29°43' E 031°12'0 0.0
2017-Nov-29 17:30S 29°43' E 031°12'0 0.0
2017-Nov-29 17:00S 29°43' E 031°12'0 0.0
2017-Nov-29 16:30S 29°43' E 031°12'0 0.1
2017-Nov-29 16:00S 29°43' E 031°12'0 0.1
2017-Nov-29 15:30S 29°43' E 031°12'0 0.1
2017-Nov-29 15:00S 29°43' E 031°12'0 0.0
2017-Nov-29 14:30S 29°43' E 031°12'0 0.0
2017-Nov-29 14:00S 29°43' E 031°12'0 0.0
2017-Nov-29 13:30S 29°43' E 031°12'0 0.0
2017-Nov-29 12:57S 29°43' E 031°12'0 0.0
2017-Nov-29 12:30S 29°43' E 031°12'0 0.0
2017-Nov-29 12:00S 29°43' E 031°12'0 0.0
2017-Nov-29 11:30S 29°43' E 031°12'0 0.0
2017-Nov-29 11:00S 29°43' E 031°12'0 0.0
2017-Nov-29 10:30S 29°43' E 031°12'0 0.1
2017-Nov-29 10:00S 29°43' E 031°12'0 0.1
2017-Nov-29 09:30S 29°43' E 031°12'0 0.0
2017-Nov-29 09:00S 29°43' E 031°12'0 0.0
2017-Nov-29 08:30S 29°43' E 031°12'0 0.1
2017-Nov-29 08:00S 29°43' E 031°12'0 0.0
2017-Nov-29 07:30S 29°43' E 031°12'0 0.0
2017-Nov-29 07:00S 29°43' E 031°12'0 0.0
2017-Nov-29 06:30S 29°43' E 031°12'0 0.0
2017-Nov-29 06:00S 29°43' E 031°12'0 0.0
2017-Nov-29 05:30S 29°43' E 031°12'0 0.0
2017-Nov-29 05:00S 29°43' E 031°12'0 0.0
2017-Nov-29 04:30S 29°43' E 031°12'0 0.0
2017-Nov-29 04:00S 29°43' E 031°12'0 0.0
2017-Nov-29 03:30S 29°43' E 031°12'0 0.1
2017-Nov-29 03:00S 29°43' E 031°12'0 0.1
2017-Nov-29 02:30S 29°43' E 031°12'0 0.0
2017-Nov-29 02:00S 29°43' E 031°12'0 0.1
2017-Nov-29 01:30S 29°43' E 031°12'0 0.1
2017-Nov-29 01:00S 29°43' E 031°12'0 0.1
2017-Nov-29 00:27S 29°43' E 031°12'0 0.1
2017-Nov-29 00:00S 29°43' E 031°12'0 0.1
2017-Nov-28 23:30S 29°43' E 031°12'0 0.2
2017-Nov-28 23:00S 29°43' E 031°12'0 0.0
2017-Nov-28 22:30S 29°43' E 031°12'0 0.0
2017-Nov-28 22:00S 29°43' E 031°12'0 0.0
2017-Nov-28 21:30S 29°43' E 031°12'0 0.0
2017-Nov-28 21:00S 29°43' E 031°12'0 0.1
2017-Nov-28 20:30S 29°43' E 031°12'0 0.1
2017-Nov-28 20:00S 29°43' E 031°12'0 0.0
2017-Nov-28 19:30S 29°43' E 031°12'0 0.1
2017-Nov-28 19:00S 29°43' E 031°12'0 0.0
2017-Nov-28 18:30S 29°43' E 031°12'0 0.0
2017-Nov-28 18:00S 29°43' E 031°12'0 0.0
2017-Nov-28 17:30S 29°43' E 031°12'0 0.0
2017-Nov-28 17:00S 29°43' E 031°12'0 0.0
2017-Nov-28 16:30S 29°43' E 031°12'0 0.1
2017-Nov-28 16:00S 29°43' E 031°12'0 0.0
2017-Nov-28 15:00S 29°43' E 031°12'0 0.1
2017-Nov-28 14:30S 29°43' E 031°12'0 0.1
2017-Nov-28 14:00S 29°43' E 031°12'0 0.1
2017-Nov-28 13:30S 29°43' E 031°12'0 0.0
2017-Nov-28 13:00S 29°43' E 031°12'0 0.1
2017-Nov-28 12:30S 29°43' E 031°12'0 0.1
2017-Nov-28 12:00S 29°43' E 031°12'0 0.1
2017-Nov-28 11:30S 29°43' E 031°12'0 0.1
2017-Nov-28 11:00S 29°43' E 031°12'0 0.1
2017-Nov-28 10:30S 29°43' E 031°12'0 0.1
2017-Nov-28 10:00S 29°43' E 031°12'0 0.2
2017-Nov-28 09:30S 29°43' E 031°12'0 0.0
2017-Nov-28 09:00S 29°43' E 031°12'0 0.1
2017-Nov-28 08:30S 29°43' E 031°12'0 0.1
2017-Nov-28 08:00S 29°43' E 031°12'0 0.1
2017-Nov-28 07:30S 29°43' E 031°12'0 0.0
2017-Nov-28 07:00S 29°43' E 031°12'0 0.0
2017-Nov-28 06:30S 29°43' E 031°12'0 0.0
2017-Nov-28 06:00S 29°43' E 031°12'0 0.0
2017-Nov-28 05:30S 29°43' E 031°12'0 0.1
2017-Nov-28 04:30S 29°43' E 031°12'0 0.1
2017-Nov-28 04:00S 29°43' E 031°12'0 0.1
2017-Nov-28 03:30S 29°43' E 031°12'0 0.1
2017-Nov-28 03:00S 29°43' E 031°12'0 0.0
2017-Nov-28 02:30S 29°43' E 031°12'0 0.0
2017-Nov-28 02:00S 29°43' E 031°12'0 0.0
2017-Nov-28 01:30S 29°43' E 031°12'0 0.0
2017-Nov-28 01:00S 29°43' E 031°12'0 0.0
2017-Nov-28 00:30S 29°43' E 031°12'0 0.0
2017-Nov-28 00:00S 29°43' E 031°12'0 0.0
2017-Nov-27 23:30S 29°43' E 031°12'0 0.0
2017-Nov-27 23:00S 29°43' E 031°12'0 0.0
2017-Nov-27 22:30S 29°43' E 031°12'0 0.0
2017-Nov-27 22:00S 29°43' E 031°12'0 0.0
2017-Nov-27 21:30S 29°43' E 031°12'0 0.0
2017-Nov-27 21:00S 29°43' E 031°12'0 0.0
2017-Nov-27 20:30S 29°43' E 031°12'0 0.0
2017-Nov-27 20:00S 29°43' E 031°12'0 0.0
2017-Nov-27 19:30S 29°43' E 031°12'0 0.0
2017-Nov-27 19:00S 29°43' E 031°12'0 0.0
2017-Nov-27 18:30S 29°43' E 031°12'0 0.0
2017-Nov-27 18:00S 29°43' E 031°12'0 0.0
2017-Nov-27 17:30S 29°43' E 031°12'0 0.0
2017-Nov-27 17:00S 29°43' E 031°12'0 0.0
2017-Nov-27 16:27S 29°43' E 031°12'0 0.0
2017-Nov-27 16:00S 29°43' E 031°12'0 0.0
2017-Nov-27 15:30S 29°43' E 031°12'0 0.0
2017-Nov-27 15:00S 29°43' E 031°12'0 0.0
2017-Nov-27 14:30S 29°43' E 031°12'0 0.0
2017-Nov-27 14:00S 29°43' E 031°12'0 0.0
2017-Nov-27 13:30S 29°43' E 031°12'0 0.0
2017-Nov-27 12:57S 29°43' E 031°12'0 0.0
2017-Nov-27 12:30S 29°43' E 031°12'0 0.0
2017-Nov-27 12:00S 29°43' E 031°12'0 0.0
2017-Nov-27 11:30S 29°43' E 031°12'0 0.0
2017-Nov-27 11:00S 29°43' E 031°12'0 0.0
2017-Nov-27 10:30S 29°43' E 031°12'0 0.0
2017-Nov-27 10:00S 29°43' E 031°12'0 0.0
2017-Nov-27 09:30S 29°43' E 031°12'0 0.1
2017-Nov-27 09:00S 29°43' E 031°12'0 0.0
2017-Nov-27 08:30S 29°43' E 031°12'0 0.0
2017-Nov-27 08:00S 29°43' E 031°12'0 0.0
2017-Nov-27 07:24S 29°43' E 031°12'0 0.0
2017-Nov-27 07:00S 29°43' E 031°12'0 0.1
2017-Nov-27 06:30S 29°43' E 031°12'0 0.1
2017-Nov-27 06:00S 29°43' E 031°12'0 0.0
2017-Nov-27 05:30S 29°43' E 031°12'0 0.0
2017-Nov-27 05:00S 29°43' E 031°12'0 0.0
2017-Nov-27 04:30S 29°43' E 031°12'0 0.0
2017-Nov-27 04:00S 29°43' E 031°12'0 0.0
2017-Nov-27 03:27S 29°43' E 031°12'0 0.0
2017-Nov-27 03:00S 29°43' E 031°12'0 0.1
2017-Nov-27 02:27S 29°43' E 031°12'0 0.0
2017-Nov-27 02:00S 29°43' E 031°12'0 0.1
2017-Nov-27 01:30S 29°43' E 031°12'0 0.0
2017-Nov-27 01:00S 29°43' E 031°12'0 0.0
2017-Nov-27 00:30S 29°43' E 031°12'0 0.1
2017-Nov-27 00:00S 29°43' E 031°12'  

Dump ship's entire track history